Time;durP1;ratioP1;P1;durP2;ratioP2;P2;SDS_P1;SDS_P2;PMS_P1;PMS_P2;Temp;Humidity;BMP_temperature;BMP_pressure;BME280_temperature;BME280_humidity;BME280_pressure;Samples;Min_cycle;Max_cycle;Signal;HPM_P1;HPM_P2
2022/09/17 00:01:52;;;;;;;5.35;4.08;;;;;;;13.79;100.00;98558.72;1678256;85;21730;-74
2022/09/17 00:04:19;;;;;;;6.72;4.62;;;;;;;13.79;100.00;98559.52;1678105;85;20984;-72
2022/09/17 00:06:47;;;;;;;4.78;3.83;;;;;;;13.83;100.00;98547.95;1678108;85;21469;-72
2022/09/17 00:09:14;;;;;;;6.42;4.33;;;;;;;13.86;100.00;98542.25;1678140;85;20952;-70
2022/09/17 00:11:41;;;;;;;11.57;4.67;;;;;;;13.89;100.00;98533.20;1678181;85;21012;-73
2022/09/17 00:14:14;;;;;;;9.80;4.25;;;;;;;13.83;100.00;98527.19;1678351;85;21107;-74
2022/09/17 00:16:44;;;;;;;6.20;3.93;;;;;;;13.82;100.00;98522.80;1678402;85;21048;-70
2022/09/17 00:19:18;;;;;;;4.95;4.30;;;;;;;13.91;100.00;98520.38;1678407;84;21565;-68
2022/09/17 00:21:44;;;;;;;5.92;4.17;;;;;;;13.93;100.00;98520.24;1678317;85;21524;-72
2022/09/17 00:24:12;;;;;;;6.00;4.25;;;;;;;13.99;100.00;98518.77;1678625;85;21485;-70
2022/09/17 00:26:40;;;;;;;5.90;4.12;;;;;;;14.06;100.00;98515.32;1678252;85;21700;-72
2022/09/17 00:29:08;;;;;;;8.43;4.58;;;;;;;14.08;100.00;98513.56;1678025;85;20929;-69
2022/09/17 00:31:39;;;;;;;7.70;4.60;;;;;;;14.03;100.00;98520.79;1681868;85;21462;-72
2022/09/17 00:34:06;;;;;;;6.97;4.20;;;;;;;14.04;100.00;98526.56;1678249;85;20921;-73
2022/09/17 00:36:36;;;;;;;7.92;4.35;;;;;;;13.98;100.00;98526.86;1678462;85;20929;-74
2022/09/17 00:39:04;;;;;;;7.15;4.70;;;;;;;13.94;100.00;98521.83;1678183;84;21190;-69
2022/09/17 00:41:32;;;;;;;8.15;4.37;;;;;;;14.01;100.00;98528.08;1646762;85;20976;-69
2022/09/17 00:44:03;;;;;;;8.85;5.58;;;;;;;14.05;100.00;98527.58;1678344;85;21060;-72
2022/09/17 00:46:42;;;;;;;7.72;5.00;;;;;;;14.30;100.00;98520.86;1678836;85;20929;-69
2022/09/17 00:49:15;;;;;;;7.75;4.35;;;;;;;14.40;100.00;98534.09;1678650;84;21075;-70
2022/09/17 00:52:02;;;;;;;10.03;4.33;;;;;;;14.11;100.00;98544.10;1678280;85;20913;-74
2022/09/17 00:54:30;;;;;;;6.22;3.95;;;;;;;14.24;100.00;98546.70;1650581;86;21052;-74
2022/09/17 00:56:57;;;;;;;4.97;4.15;;;;;;;14.26;100.00;98528.33;1650773;86;21553;-71
2022/09/17 00:59:25;;;;;;;11.48;4.58;;;;;;;14.19;100.00;98530.38;1650594;87;21008;-74
2022/09/17 01:01:54;;;;;;;6.08;3.75;;;;;;;14.22;100.00;98520.76;1650733;87;20964;-66
2022/09/17 01:04:25;;;;;;;4.30;3.83;;;;;;;14.14;100.00;98525.95;1650736;87;21126;-74
2022/09/17 01:07:21;;;;;;;7.78;4.17;;;;;;;14.27;100.00;98531.30;1650562;87;20936;-73
2022/09/17 01:10:41;;;;;;;4.42;3.80;;;;;;;14.42;100.00;98542.03;1650601;86;20997;-74
2022/09/17 01:13:18;;;;;;;11.85;4.55;;;;;;;14.43;100.00;98542.27;1650672;87;20999;-72
2022/09/17 01:16:13;;;;;;;6.92;4.22;;;;;;;14.53;100.00;98539.45;1650034;86;21044;-70
2022/09/17 01:19:03;;;;;;;7.58;4.42;;;;;;;14.58;100.00;98547.45;1650639;87;21213;-71
2022/09/17 01:21:45;;;;;;;7.55;4.45;;;;;;;14.60;100.00;98544.52;1650700;87;20983;-71
2022/09/17 01:24:30;;;;;;;6.87;4.65;;;;;;;14.58;100.00;98539.14;1650722;87;20893;-74
2022/09/17 01:27:17;;;;;;;;;;;;;;;14.65;100.00;98549.55;1653070;86;20905;-74
2022/09/17 01:30:26;;;;;;;5.53;4.87;;;;;;;14.66;100.00;98556.68;1650146;86;20177;-72
2022/09/17 01:33:17;;;;;;;6.28;4.40;;;;;;;14.54;100.00;98559.87;1650903;87;21136;-74
2022/09/17 01:36:23;;;;;;;5.53;3.72;;;;;;;14.57;100.00;98552.77;1650655;87;20925;-73
2022/09/17 01:39:41;;;;;;;5.80;4.12;;;;;;;14.53;100.00;98549.16;1650706;86;21000;-70
2022/09/17 01:42:30;;;;;;;7.60;4.33;;;;;;;14.52;100.00;98550.34;1650718;87;20944;-73
2022/09/17 01:45:07;;;;;;;4.92;4.40;;;;;;;14.66;100.00;98557.48;1650754;86;20948;-68
2022/09/17 01:47:53;;;;;;;10.13;4.12;;;;;;;14.65;100.00;98566.17;1650856;87;21450;-72
2022/09/17 01:50:25;;;;;;;8.10;4.42;;;;;;;14.65;100.00;98568.95;1614965;87;21085;-73
2022/09/17 01:52:53;;;;;;;8.50;4.45;;;;;;;14.73;100.00;98579.80;1649902;86;21039;-73
2022/09/17 01:55:21;;;;;;;6.22;4.55;;;;;;;14.71;100.00;98568.84;1657782;86;21012;-71
2022/09/17 01:57:56;;;;;;;6.67;4.25;;;;;;;14.80;100.00;98572.75;1657710;86;21600;-74
2022/09/17 02:00:23;;;;;;;5.65;3.80;;;;;;;14.82;100.00;98567.67;1657920;86;21237;-73
2022/09/17 02:03:03;;;;;;;6.78;3.72;;;;;;;14.89;100.00;98565.59;1657676;86;20987;-73
2022/09/17 02:05:39;;;;;;;6.08;4.65;;;;;;;14.98;100.00;98561.95;1657721;86;21024;-67
2022/09/17 02:08:21;;;;;;;9.78;4.85;;;;;;;15.12;100.00;98560.56;1657750;86;20968;-70
2022/09/17 02:11:08;;;;;;;6.55;4.17;;;;;;;15.13;100.00;98559.41;1657971;86;21422;-70
2022/09/17 02:13:43;;;;;;;5.90;4.28;;;;;;;15.12;100.00;98559.98;1657837;86;21067;-73
2022/09/17 02:16:28;;;;;;;4.97;4.35;;;;;;;15.09;100.00;98554.61;1657884;86;20900;-73
2022/09/17 02:19:13;;;;;;;;;;;;;;;15.15;100.00;98565.38;1660243;86;21556;-73
2022/09/17 02:21:51;;;;;;;7.75;4.40;;;;;;;15.13;100.00;98571.89;1657818;86;20107;-71
2022/09/17 02:24:28;;;;;;;6.00;4.83;;;;;;;15.02;100.00;98575.30;1657838;86;20849;-72
2022/09/17 02:27:35;;;;;;;8.53;5.00;;;;;;;14.98;100.00;98568.11;1657712;86;21110;-70
2022/09/17 02:30:02;;;;;;;7.15;4.87;;;;;;;14.96;100.00;98562.94;1657956;86;21564;-73
2022/09/17 02:32:29;;;;;;;6.55;4.50;;;;;;;14.86;100.00;98576.83;1657714;86;21020;-73
2022/09/17 02:34:55;;;;;;;5.17;4.22;;;;;;;14.81;100.00;98582.69;1658172;86;20894;-69
2022/09/17 02:37:22;;;;;;;6.67;4.10;;;;;;;14.68;100.00;98580.68;1657762;86;21063;-72
2022/09/17 02:39:48;;;;;;;5.62;3.72;;;;;;;14.88;100.00;98577.27;1636363;86;21198;-70
2022/09/17 02:42:53;;;;;;;9.73;4.78;;;;;;;14.99;100.00;98572.47;1657687;86;20885;-71
2022/09/17 02:45:53;;;;;;;5.87;4.12;;;;;;;15.03;100.00;98566.40;1657725;86;20901;-69
2022/09/17 02:48:44;;;;;;;5.92;4.50;;;;;;;15.06;100.00;98558.11;1658206;86;20980;-69
2022/09/17 02:51:46;;;;;;;13.08;4.80;;;;;;;15.16;100.00;98562.81;1658078;86;20992;-71
2022/09/17 02:54:30;;;;;;;7.55;4.55;;;;;;;15.23;100.00;98559.34;1657761;86;21158;-73
2022/09/17 02:57:28;;;;;;;7.47;4.67;;;;;;;15.18;100.00;98552.92;1652206;86;21056;-72
2022/09/17 03:00:17;;;;;;;10.03;5.60;;;;;;;15.14;100.00;98542.38;1657954;86;21517;-72
2022/09/17 03:02:58;;;;;;;8.33;5.28;;;;;;;15.19;100.00;98542.05;1657203;86;21012;-72
2022/09/17 03:05:27;;;;;;;10.00;6.08;;;;;;;15.10;100.00;98542.91;1657613;86;20932;-73
2022/09/17 03:07:59;;;;;;;12.18;6.37;;;;;;;15.21;100.00;98545.27;1637063;86;21193;-71
2022/09/17 03:10:24;;;;;;;10.93;7.80;;;;;;;15.15;100.00;98549.52;1657129;86;21413;-74
2022/09/17 03:12:50;;;;;;;8.78;5.58;;;;;;;15.08;100.00;98550.22;1657738;86;20988;-74
2022/09/17 03:15:17;;;;;;;12.73;6.33;;;;;;;14.97;100.00;98550.66;1657846;86;21008;-72
2022/09/17 03:17:48;;;;;;;9.28;5.22;;;;;;;14.87;100.00;98557.64;1657797;86;21051;-74
2022/09/17 03:20:15;;;;;;;9.30;5.80;;;;;;;14.80;100.00;98564.43;1657811;86;21233;-74
2022/09/17 03:22:42;;;;;;;6.87;4.72;;;;;;;14.68;100.00;98565.43;1657681;86;20987;-72
2022/09/17 03:25:10;;;;;;;10.25;5.45;;;;;;;14.65;100.00;98564.22;1657910;86;21011;-67
2022/09/17 03:27:36;;;;;;;7.17;4.92;;;;;;;14.69;100.00;98561.48;1657721;86;21020;-73
2022/09/17 03:30:06;;;;;;;9.98;5.20;;;;;;;14.86;100.00;98562.19;1657892;86;21052;-74
2022/09/17 03:32:32;;;;;;;8.65;5.22;;;;;;;14.87;100.00;98565.16;1657870;86;21136;-70
2022/09/17 03:35:02;;;;;;;7.85;5.30;;;;;;;14.79;100.00;98568.39;1657767;86;20980;-68
2022/09/17 03:37:30;;;;;;;7.40;5.40;;;;;;;14.66;100.00;98571.35;1657753;86;21091;-74
2022/09/17 03:40:02;;;;;;;6.45;5.17;;;;;;;14.67;100.00;98563.84;1657732;86;21524;-74
2022/09/17 03:42:31;;;;;;;8.43;5.50;;;;;;;14.61;100.00;98571.66;1658116;86;20992;-67
2022/09/17 03:44:59;;;;;;;7.30;5.33;;;;;;;14.69;100.00;98574.77;1657882;86;21247;-72
2022/09/17 03:47:25;;;;;;;8.28;5.12;;;;;;;14.63;100.00;98576.25;1657836;86;20889;-73
2022/09/17 03:49:52;;;;;;;7.50;4.95;;;;;;;14.66;100.00;98580.24;1657919;86;20940;-71
2022/09/17 03:52:19;;;;;;;11.30;5.25;;;;;;;14.75;100.00;98584.16;1657843;86;21027;-69
2022/09/17 03:54:48;;;;;;;7.90;5.00;;;;;;;14.83;100.00;98582.55;1654093;85;21425;-73
2022/09/17 03:57:16;;;;;;;9.40;4.80;;;;;;;14.85;100.00;98578.02;1650829;86;21418;-68
2022/09/17 03:59:43;;;;;;;11.40;5.20;;;;;;;14.98;100.00;98585.52;1650616;87;20980;-73
2022/09/17 04:02:09;;;;;;;11.68;5.53;;;;;;;15.00;100.00;98576.25;1650829;86;21323;-72
2022/09/17 04:04:37;;;;;;;7.85;5.47;;;;;;;15.05;100.00;98587.03;1650746;86;21009;-73
2022/09/17 04:07:04;;;;;;;14.10;5.40;;;;;;;15.12;100.00;98582.75;1650711;87;20949;-74
2022/09/17 04:09:32;;;;;;;11.10;5.12;;;;;;;15.24;100.00;98592.25;1651125;86;21872;-73
2022/09/17 04:11:59;;;;;;;10.88;5.20;;;;;;;15.24;100.00;98597.80;1650749;86;20980;-73
2022/09/17 04:14:26;;;;;;;11.30;5.55;;;;;;;15.28;100.00;98602.83;1650697;87;20913;-70
2022/09/17 04:16:52;;;;;;;9.88;5.35;;;;;;;15.25;100.00;98600.78;1650729;86;20897;-72
2022/09/17 04:19:19;;;;;;;9.10;6.05;;;;;;;15.36;100.00;98598.75;1650739;87;21111;-73
2022/09/17 04:21:45;;;;;;;7.50;5.83;;;;;;;15.36;100.00;98611.23;1650724;87;21092;-72
2022/09/17 04:24:14;;;;;;;10.55;6.28;;;;;;;15.31;100.00;98617.34;1588377;89;21072;-73
2022/09/17 04:26:40;;;;;;;10.23;5.83;;;;;;;15.30;100.00;98617.11;1597978;89;21068;-71
2022/09/17 04:29:08;;;;;;;8.95;6.42;;;;;;;15.34;100.00;98615.77;1598046;89;21476;-71
2022/09/17 04:31:39;;;;;;;11.35;6.25;;;;;;;15.35;100.00;98619.36;1597939;89;21022;-73
2022/09/17 04:34:06;;;;;;;7.65;4.92;;;;;;;15.33;100.00;98627.48;1618571;88;22035;-66
2022/09/17 04:36:34;;;;;;;6.78;5.12;;;;;;;15.39;100.00;98636.27;1597911;89;20965;-71
2022/09/17 04:39:01;;;;;;;6.72;5.10;;;;;;;15.45;100.00;98637.56;1597812;89;21605;-70
2022/09/17 04:41:28;;;;;;;9.08;6.00;;;;;;;15.52;100.00;98634.66;1597991;89;20986;-67
2022/09/17 04:43:54;;;;;;;7.60;5.90;;;;;;;15.57;100.00;98621.24;1597935;89;21071;-71
2022/09/17 04:46:24;;;;;;;14.90;7.33;;;;;;;15.56;100.00;98612.71;1598024;89;21219;-72
2022/09/17 04:48:50;;;;;;;12.33;5.97;;;;;;;15.53;100.00;98609.30;1598230;89;21037;-72
2022/09/17 04:51:18;;;;;;;13.03;6.22;;;;;;;15.54;100.00;98603.95;1597875;89;21094;-72
2022/09/17 04:53:45;;;;;;;7.15;5.70;;;;;;;15.54;100.00;98601.78;1614673;88;20925;-74
2022/09/17 04:56:12;;;;;;;9.88;6.10;;;;;;;15.55;100.00;98588.91;1604863;89;21589;-71
2022/09/17 04:58:39;;;;;;;9.13;5.90;;;;;;;15.56;100.00;98591.08;1604669;89;21266;-73
2022/09/17 05:01:06;;;;;;;10.30;5.75;;;;;;;15.63;100.00;98587.59;1604600;88;20970;-71
2022/09/17 05:03:34;;;;;;;10.08;6.20;;;;;;;15.71;100.00;98587.92;1604730;88;21545;-70
2022/09/17 05:06:01;;;;;;;9.20;6.30;;;;;;;15.79;100.00;98605.46;1604480;88;21029;-75
2022/09/17 05:08:29;;;;;;;8.10;5.58;;;;;;;15.87;100.00;98609.92;1604570;89;21530;-73
2022/09/17 05:10:56;;;;;;;13.30;6.50;;;;;;;15.95;100.00;98616.34;1604667;89;21629;-73
2022/09/17 05:13:24;;;;;;;19.55;6.40;;;;;;;16.01;100.00;98619.63;1604561;88;20913;-69
2022/09/17 05:15:53;;;;;;;6.62;5.20;;;;;;;16.05;100.00;98614.92;1604671;88;21009;-70
2022/09/17 05:18:24;;;;;;;6.35;4.78;;;;;;;16.11;100.00;98617.56;1607676;88;21059;-69
2022/09/17 05:20:53;;;;;;;11.08;6.03;;;;;;;16.21;100.00;98615.27;1604734;88;21085;-74
2022/09/17 05:23:19;;;;;;;10.20;6.00;;;;;;;16.24;100.00;98615.31;1604625;88;21331;-72
2022/09/17 05:25:46;;;;;;;9.45;5.92;;;;;;;16.25;100.00;98611.38;1604845;88;21038;-75
2022/09/17 05:28:12;;;;;;;7.42;5.70;;;;;;;16.28;100.00;98602.84;1604667;88;21537;-72
2022/09/17 05:30:41;;;;;;;15.25;7.20;;;;;;;16.35;100.00;98614.63;1604440;88;21544;-72
2022/09/17 05:33:08;;;;;;;14.38;6.45;;;;;;;16.34;100.00;98606.91;1604627;89;20957;-71
2022/09/17 05:35:36;;;;;;;11.68;5.95;;;;;;;16.21;100.00;98598.59;1585835;89;21266;-74
2022/09/17 05:38:07;;;;;;;8.30;5.97;;;;;;;16.20;100.00;98605.34;1596030;90;21081;-73
2022/09/17 05:40:37;;;;;;;9.18;5.78;;;;;;;16.25;100.00;98606.39;1618568;88;21039;-71
2022/09/17 05:43:06;;;;;;;12.80;6.15;;;;;;;16.28;100.00;98605.05;1618559;88;21103;-72
2022/09/17 05:45:36;;;;;;;6.87;5.60;;;;;;;16.32;100.00;98607.06;1618678;88;20910;-73
2022/09/17 05:48:05;;;;;;;9.13;5.70;;;;;;;16.35;100.00;98602.93;1597900;89;21309;-72
2022/09/17 05:50:32;;;;;;;15.20;5.60;;;;;;;16.35;100.00;98601.54;1598003;89;21001;-70
2022/09/17 05:53:11;;;;;;;14.35;6.53;;;;;;;16.41;100.00;98606.95;1597891;89;21044;-72
2022/09/17 05:55:37;;;;;;;11.22;5.37;;;;;;;16.54;100.00;98613.63;1597627;89;20969;-74
2022/09/17 05:58:14;;;;;;;6.70;5.90;;;;;;;16.63;100.00;98609.15;1597840;89;21088;-71
2022/09/17 06:00:41;;;;;;;10.88;5.08;;;;;;;16.66;100.00;98613.94;1618935;88;21865;-74
2022/09/17 06:03:15;;;;;;;11.18;5.55;;;;;;;16.77;100.00;98612.63;1600359;88;21102;-70
2022/09/17 06:05:43;;;;;;;10.55;5.30;;;;;;;16.79;100.00;98609.68;1618708;88;21096;-70
2022/09/17 06:08:12;;;;;;;12.53;5.12;;;;;;;16.84;100.00;98611.30;1597831;89;21551;-71
2022/09/17 06:10:40;;;;;;;8.15;5.03;;;;;;;16.87;100.00;98611.14;1598193;89;20977;-72
2022/09/17 06:13:07;;;;;;;7.03;5.50;;;;;;;16.90;100.00;98606.19;1597826;89;21170;-74
2022/09/17 06:15:36;;;;;;;7.25;4.60;;;;;;;16.88;100.00;98607.16;1597962;89;21447;-71
2022/09/17 06:18:03;;;;;;;8.68;5.30;;;;;;;16.85;100.00;98603.18;1597802;89;21002;-73
2022/09/17 06:20:30;;;;;;;7.00;4.78;;;;;;;16.78;100.00;98592.80;1597800;89;21065;-73
2022/09/17 06:22:59;;;;;;;8.90;4.90;;;;;;;16.82;100.00;98597.58;1610047;89;21502;-72
2022/09/17 06:25:28;;;;;;;8.83;5.03;;;;;;;16.82;100.00;98587.23;1597915;89;21075;-72
2022/09/17 06:27:54;;;;;;;6.78;4.75;;;;;;;16.87;100.00;98593.05;1597782;89;21574;-73
2022/09/17 06:30:26;;;;;;;9.38;5.80;;;;;;;16.94;100.00;98595.88;1597890;89;21025;-74
2022/09/17 06:32:52;;;;;;;9.65;5.60;;;;;;;17.03;100.00;98610.84;1597944;89;21076;-73
2022/09/17 06:35:20;;;;;;;9.18;5.30;;;;;;;17.05;100.00;98608.48;1597875;89;20962;-73
2022/09/17 06:37:49;;;;;;;6.87;4.78;;;;;;;17.15;100.00;98612.55;1597852;89;21188;-73
2022/09/17 06:40:22;;;;;;;12.28;5.15;;;;;;;17.19;100.00;98610.60;1597835;89;21080;-73
2022/09/17 06:42:52;;;;;;;7.53;4.70;;;;;;;17.27;100.00;98606.67;1598031;89;21037;-74
2022/09/17 06:45:27;;;;;;;7.78;5.37;;;;;;;17.28;100.00;98609.65;1568275;90;20946;-70
2022/09/17 06:47:53;;;;;;;6.28;5.65;;;;;;;17.38;100.00;98608.73;1598048;89;20973;-70
2022/09/17 06:50:21;;;;;;;11.73;5.85;;;;;;;17.42;100.00;98615.09;1597808;89;21171;-70
2022/09/17 06:52:50;;;;;;;8.05;5.58;;;;;;;17.45;100.00;98610.14;1597880;89;20974;-71
2022/09/17 06:55:17;;;;;;;13.13;6.30;;;;;;;17.51;100.00;98622.52;1598653;88;21163;-71
2022/09/17 06:57:44;;;;;;;10.95;6.10;;;;;;;17.54;100.00;98624.33;1599818;89;20990;-71
2022/09/17 07:00:14;;;;;;;9.43;6.45;;;;;;;17.61;100.00;98626.55;1599959;89;21024;-71
2022/09/17 07:02:40;;;;;;;7.92;5.87;;;;;;;17.67;100.00;98624.78;1599742;88;21136;-74
2022/09/17 07:05:13;;;;;;;9.85;5.87;;;;;;;17.64;100.00;98617.41;1599873;88;21073;-72
2022/09/17 07:07:41;;;;;;;7.20;5.60;;;;;;;17.56;100.00;98613.58;1600047;88;20997;-74
2022/09/17 07:10:10;;;;;;;10.45;5.60;;;;;;;17.54;100.00;98612.58;1599738;89;21041;-70
2022/09/17 07:12:41;;;;;;;6.67;4.75;;;;;;;17.54;100.00;98620.16;1599944;89;21041;-74
2022/09/17 07:15:14;;;;;;;6.95;5.05;;;;;;;17.63;100.00;98618.61;1599886;88;21156;-75
2022/09/17 07:17:43;;;;;;;10.40;6.35;;;;;;;17.67;100.00;98621.41;1600057;89;21003;-72
2022/09/17 07:20:10;;;;;;;9.88;5.67;;;;;;;17.69;100.00;98620.41;1600211;88;21556;-73
2022/09/17 07:22:37;;;;;;;8.85;4.83;;;;;;;17.64;100.00;98609.64;1599871;88;20981;-73
2022/09/17 07:25:08;;;;;;;11.85;4.67;;;;;;;17.72;100.00;98615.47;1595943;90;21140;-74
2022/09/17 07:27:35;;;;;;;10.13;3.75;;;;;;;17.80;100.00;98616.88;1595992;88;21172;-71
2022/09/17 07:30:05;;;;;;;7.10;4.30;;;;;;;17.80;100.00;98619.66;1597734;89;21049;-74
2022/09/17 07:32:35;;;;;;;6.20;3.97;;;;;;;17.79;100.00;98615.29;1596305;88;20974;-72
2022/09/17 07:35:01;;;;;;;6.85;4.12;;;;;;;17.80;100.00;98614.89;1596181;88;21578;-73
2022/09/17 07:37:31;;;;;;;6.92;4.17;;;;;;;17.89;100.00;98621.50;1595984;90;20978;-74
2022/09/17 07:39:59;;;;;;;7.15;4.05;;;;;;;17.93;100.00;98617.34;1596013;90;21211;-74
2022/09/17 07:42:26;;;;;;;8.78;4.75;;;;;;;18.00;100.00;98615.95;1596027;88;20982;-74
2022/09/17 07:44:53;;;;;;;7.15;4.67;;;;;;;18.00;100.00;98610.38;1595866;88;21521;-75
2022/09/17 07:47:20;;;;;;;15.32;5.67;;;;;;;18.09;100.00;98605.84;1596216;88;20969;-71
2022/09/17 07:49:53;;;;;;;10.70;4.67;;;;;;;18.11;100.00;98604.27;1596130;89;21038;-72
2022/09/17 07:52:21;;;;;;;11.05;4.65;;;;;;;18.15;100.00;98602.89;1595946;90;21121;-73
2022/09/17 07:54:48;;;;;;;11.25;4.42;;;;;;;18.21;100.00;98592.97;1596102;88;21095;-71
2022/09/17 07:57:14;;;;;;;11.90;3.65;;;;;;;18.21;100.00;98598.55;1603071;89;20982;-70
2022/09/17 07:59:41;;;;;;;6.30;3.27;;;;;;;18.25;100.00;98588.17;1603056;89;21037;-74
2022/09/17 08:02:13;;;;;;;9.93;3.85;;;;;;;18.31;100.00;98587.79;1603108;89;21101;-74
2022/09/17 08:04:43;;;;;;;17.07;5.63;;;;;;;18.33;100.00;98582.04;1660329;86;21155;-72
2022/09/17 08:07:12;;;;;;;6.42;3.60;;;;;;;18.27;100.00;98579.42;1659987;86;21535;-69
2022/09/17 08:09:39;;;;;;;9.08;2.92;;;;;;;18.28;100.00;98585.80;1660137;86;21070;-74
2022/09/17 08:12:08;;;;;;;6.67;3.00;;;;;;;18.33;100.00;98589.01;1659957;86;20904;-73
2022/09/17 08:14:35;;;;;;;8.75;3.52;;;;;;;18.37;100.00;98595.98;1659935;86;21067;-72
2022/09/17 08:17:02;;;;;;;9.40;3.08;;;;;;;18.37;100.00;98589.02;1626902;86;21178;-72
2022/09/17 08:19:31;;;;;;;5.12;3.30;;;;;;;18.36;100.00;98586.01;1634244;86;21517;-71
2022/09/17 08:21:58;;;;;;;8.68;4.95;;;;;;;18.36;100.00;98587.41;1660004;86;20984;-72
2022/09/17 08:24:26;;;;;;;8.98;5.15;;;;;;;18.30;100.00;98582.03;1660082;86;21016;-70
2022/09/17 08:26:53;;;;;;;7.95;5.62;;;;;;;18.27;100.00;98579.42;1660232;86;21487;-70
2022/09/17 08:29:19;;;;;;;10.93;6.00;;;;;;;18.24;100.00;98588.58;1659976;86;22048;-68
2022/09/17 08:31:47;;;;;;;13.35;6.40;;;;;;;18.19;100.00;98595.93;1659944;86;20981;-72
2022/09/17 08:34:13;;;;;;;13.13;6.58;;;;;;;18.11;100.00;98599.28;1660104;86;21516;-67
2022/09/17 08:36:42;;;;;;;11.38;5.62;;;;;;;18.13;100.00;98597.70;1660077;86;20971;-68
2022/09/17 08:39:10;;;;;;;7.78;5.58;;;;;;;18.12;100.00;98595.29;1660121;86;20972;-66
2022/09/17 08:41:47;;;;;;;9.55;5.40;;;;;;;18.11;100.00;98593.70;1660047;86;21481;-69
2022/09/17 08:44:21;;;;;;;11.93;5.70;;;;;;;18.08;100.00;98594.50;1660127;86;21027;-71
2022/09/17 08:46:50;;;;;;;8.25;5.25;;;;;;;18.07;100.00;98595.08;1660161;86;20956;-68
2022/09/17 08:49:26;;;;;;;7.65;5.00;;;;;;;18.11;100.00;98586.73;1659950;86;20868;-65
2022/09/17 08:52:20;;;;;;;8.13;5.30;;;;;;;18.11;100.00;98575.00;1659988;86;21060;-65
2022/09/17 08:55:10;;;;;;;12.20;6.00;;;;;;;18.13;100.00;98578.81;1660036;86;21219;-67
2022/09/17 08:57:56;;;;;;;7.03;5.60;;;;;;;18.18;100.00;98565.89;1659917;86;21493;-65
2022/09/17 09:00:23;;;;;;;6.60;5.03;;;;;;;18.24;100.00;98574.64;1659482;86;20936;-69
2022/09/17 09:03:28;;;;;;;13.70;5.33;;;;;;;18.28;100.00;98583.82;1659885;86;21047;-67
2022/09/17 09:05:57;;;;;;;9.73;5.65;;;;;;;18.29;100.00;98584.63;1659848;86;21076;-71
2022/09/17 09:08:38;;;;;;;11.18;5.47;;;;;;;18.28;100.00;98591.37;1659955;86;21152;-67
2022/09/17 09:11:08;;;;;;;10.40;5.55;;;;;;;18.29;100.00;98590.20;1659683;86;20960;-73
2022/09/17 09:13:39;;;;;;;8.40;4.95;;;;;;;18.36;100.00;98584.61;1660004;86;21047;-71
2022/09/17 09:16:25;;;;;;;11.68;5.40;;;;;;;18.42;100.00;98583.64;1660178;86;20952;-69
2022/09/17 09:19:00;;;;;;;12.30;5.62;;;;;;;18.42;100.00;98581.66;1659990;86;21018;-70
2022/09/17 09:21:35;;;;;;;6.67;4.20;;;;;;;18.47;100.00;98576.28;1659265;86;21423;-72
2022/09/17 09:24:10;;;;;;;11.30;4.37;;;;;;;18.49;100.00;98576.69;1659819;86;21004;-65
2022/09/17 09:26:47;;;;;;;9.70;4.60;;;;;;;18.46;100.00;98571.28;1660254;86;21402;-67
2022/09/17 09:29:36;;;;;;;7.25;3.95;;;;;;;18.43;100.00;98579.05;1660061;86;20944;-72
2022/09/17 09:32:26;;;;;;;7.25;3.85;;;;;;;18.45;100.00;98578.07;1660193;86;21476;-72
2022/09/17 09:34:54;;;;;;;5.80;3.72;;;;;;;18.49;100.00;98583.66;1660068;86;21035;-73
2022/09/17 09:37:27;;;;;;;10.03;4.42;;;;;;;18.52;100.00;98582.86;1659936;86;21000;-69
2022/09/17 09:39:55;;;;;;;5.65;3.83;;;;;;;18.56;100.00;98584.25;1660078;86;21031;-72
2022/09/17 09:42:33;;;;;;;8.30;4.42;;;;;;;18.51;100.00;98595.80;1660227;86;21483;-66
2022/09/17 09:45:12;;;;;;;10.95;4.92;;;;;;;18.57;100.00;98597.00;1659931;86;21107;-74
2022/09/17 09:47:54;;;;;;;9.43;4.12;;;;;;;18.66;100.00;98591.84;1660113;86;21793;-72
2022/09/17 09:50:47;;;;;;;7.67;4.33;;;;;;;18.63;100.00;98582.84;1659908;86;20948;-72
2022/09/17 09:53:46;;;;;;;8.73;4.65;;;;;;;18.78;100.00;98593.41;1659896;86;21035;-72
2022/09/17 09:56:41;;;;;;;7.87;3.83;;;;;;;18.78;100.00;98603.17;1657092;85;21052;-73
2022/09/17 09:59:11;;;;;;;9.50;4.58;;;;;;;18.79;100.00;98597.80;1650708;87;21005;-73
2022/09/17 10:01:41;;;;;;;10.25;4.53;;;;;;;18.81;100.00;98597.41;1650633;87;21234;-72
2022/09/17 10:04:22;;;;;;;10.48;4.75;;;;;;;18.87;100.00;98598.59;1650900;87;21549;-71
2022/09/17 10:06:51;;;;;;;8.63;4.70;;;;;;;18.88;100.00;98592.41;1650870;87;21421;-69
2022/09/17 10:09:21;;;;;;;7.97;4.62;;;;;;;18.93;100.00;98596.20;1650858;86;20909;-71
2022/09/17 10:12:10;;;;;;;10.40;4.42;;;;;;;18.94;100.00;98596.39;1650616;87;20956;-67
2022/09/17 10:14:40;;;;;;;8.75;3.58;;;;;;;19.08;100.00;98599.18;1650127;86;20857;-69
2022/09/17 10:17:25;;;;;;;4.78;3.70;;;;;;;19.13;100.00;98600.80;1650088;86;21009;-69
2022/09/17 10:20:15;;;;;;;6.10;3.47;;;;;;;19.15;100.00;98603.98;1650681;86;21016;-73
2022/09/17 10:22:45;;;;;;;6.33;3.55;;;;;;;19.18;100.00;98593.41;1650576;87;21016;-73
2022/09/17 10:25:32;;;;;;;7.15;3.67;;;;;;;19.21;100.00;98591.80;1650551;86;21064;-71
2022/09/17 10:28:03;;;;;;;12.23;4.55;;;;;;;19.22;100.00;98589.22;1651055;86;21126;-70
2022/09/17 10:30:30;;;;;;;7.28;3.60;;;;;;;19.25;100.00;98591.79;1650654;87;37333;-70
2022/09/17 10:33:15;;;;;;;7.45;3.58;;;;;;;19.30;100.00;98598.36;1650649;87;21063;-70
2022/09/17 10:35:57;;;;;;;5.78;3.62;;;;;;;19.27;100.00;98593.59;1650579;87;20944;-73
2022/09/17 10:38:31;;;;;;;6.35;3.87;;;;;;;19.25;100.00;98584.22;1650848;87;20988;-67
2022/09/17 10:41:17;;;;;;;7.62;4.00;;;;;;;19.19;100.00;98585.22;1650390;86;21077;-72
2022/09/17 10:43:44;;;;;;;5.62;3.70;;;;;;;19.15;100.00;98584.45;1650724;86;20909;-68
2022/09/17 10:46:29;;;;;;;4.75;3.65;;;;;;;19.13;100.00;98585.44;1632087;87;21080;-73
2022/09/17 10:49:38;;;;;;;8.15;4.20;;;;;;;19.17;100.00;98586.24;1650840;86;21079;-66
2022/09/17 10:52:20;;;;;;;7.67;4.03;;;;;;;19.13;100.00;98582.65;1650498;86;20885;-67
2022/09/17 10:55:17;;;;;;;8.10;3.98;;;;;;;19.20;100.00;98593.00;1650562;87;21982;-68
2022/09/17 10:58:06;;;;;;;5.90;3.65;;;;;;;19.23;100.00;98597.00;1650521;86;20985;-72
2022/09/17 11:01:23;;;;;;;4.92;3.72;;;;;;;19.24;100.00;98593.00;1650737;87;20990;-67
2022/09/17 11:04:27;;;;;;;8.20;4.35;;;;;;;19.29;100.00;98587.01;1650596;86;21079;-72
2022/09/17 11:07:21;;;;;;;10.15;3.80;;;;;;;19.34;100.00;98576.83;1650589;86;21013;-73
2022/09/17 11:10:05;;;;;;;6.62;4.47;;;;;;;19.34;100.00;98575.43;1650724;86;21146;-71
2022/09/17 11:13:02;;;;;;;8.48;4.10;;;;;;;19.31;100.00;98569.27;1650593;87;21492;-74
2022/09/17 11:16:07;;;;;;;5.95;3.95;;;;;;;19.38;100.00;98572.63;1650618;86;20977;-72
2022/09/17 11:18:42;;;;;;;5.70;4.28;;;;;;;19.42;100.00;98569.22;1650595;86;21009;-70
2022/09/17 11:21:17;;;;;;;5.65;4.10;;;;;;;19.44;100.00;98573.20;1649936;86;20928;-73
2022/09/17 11:24:23;;;;;;;5.87;4.10;;;;;;;19.48;100.00;98576.00;1650925;87;21077;-74
2022/09/17 11:27:16;;;;;;;6.03;4.60;;;;;;;19.48;100.00;98571.00;1650631;87;21080;-72
2022/09/17 11:29:51;;;;;;;7.83;4.35;;;;;;;19.48;100.00;98564.83;1650291;86;21064;-71
2022/09/17 11:32:52;;;;;;;6.55;4.55;;;;;;;19.42;100.00;98564.43;1649609;86;21016;-74
2022/09/17 11:35:29;;;;;;;6.70;5.22;;;;;;;19.41;100.00;98558.66;1650734;87;21060;-68
2022/09/17 11:38:17;;;;;;;8.38;5.37;;;;;;;19.41;100.00;98567.04;1624343;87;21485;-73
2022/09/17 11:41:03;;;;;;;7.92;4.90;;;;;;;19.44;100.00;98559.84;1648025;86;20989;-70
2022/09/17 11:43:41;;;;;;;8.13;5.75;;;;;;;19.48;100.00;98546.67;1650588;86;21112;-73
2022/09/17 11:46:17;;;;;;;6.97;4.55;;;;;;;19.44;100.00;98531.31;1649755;86;20976;-72
2022/09/17 11:48:53;;;;;;;8.25;5.10;;;;;;;19.51;100.00;98528.29;1646358;87;20945;-70
2022/09/17 11:51:40;;;;;;;8.40;5.35;;;;;;;19.56;100.00;98532.06;1650615;86;21154;-74
2022/09/17 11:54:26;;;;;;;12.10;4.95;;;;;;;19.59;100.00;98534.04;1650615;86;20933;-71
2022/09/17 11:57:13;;;;;;;7.03;5.17;;;;;;;19.52;100.00;98534.06;1650656;86;21548;-71
2022/09/17 11:59:52;;;;;;;10.15;6.47;;;;;;;19.42;100.00;98533.71;1650543;87;20960;-71